Hauptseite
METAR-TAF:

METAR-TAF

Flughäfen :

Togiak Village, Alaska, Vereinigte Staaten

Breite: 59-03N, Länge: 160-24W, Höhe: 6 m

Beobachtung

Neuester Wetterbericht von vor 1 Stunde und 41 Minuten, um 03:56 UTC
Wind 20 kt aus Nordwest, Böen bis zu 26 kt
Temperatur -13°C
Luftfeuchtigkeit 72%
Luftdruck 1013 hPa
Sichtweite: 12.9 km
Himmel klar

METAR: PATG 280356Z AUTO 31020G26KT 8SM CLR M13/M17 A2991 RMK AO2 PK WND 31026/0353 SLP127 T11281172 FZRANO

Zeit: 20:37 (05:37 UTC)


TAF: fehlend

Wetterbeobachtungen und Prognosen von mehr als 4000 Flughäfen (METAR und TAF Bericht).

Die verfügbaren Stationen werden durch gelbe und rote Markierungen auf der Karte dargestellt.

Führen Sie die Maus auf sie, um den Namen der Station zu sehen.

Darauf klicken, um die Beobachtung von Wetterbeobachtungen und Prognosen zu sehen.

Um die Karte zu ändern : klicken Sie auf den grünen Tasten mit einem schwarzen Kreuz Zum Vergrößern, auf den grünen Button mit einem Gedankenstrich zu verkleinern, oder auf die grünen Pfeile für benachbarte Karten.


METAR-TAF: